Time;durP1;ratioP1;P1;durP2;ratioP2;P2;SDS_P1;SDS_P2;PMS_P1;PMS_P2;Temp;Humidity;BMP_temperature;BMP_pressure;BME280_temperature;BME280_humidity;BME280_pressure;Samples;Min_cycle;Max_cycle;Signal;HPM_P1;HPM_P2
2021/12/14 00:01:14;;;;;;;104.05;49.38;;;5.90;99.90;;;;;;5021879;28;20435;-56
2021/12/14 00:03:44;;;;;;;109.72;47.22;;;5.80;99.90;;;;;;5023234;28;20243;-56
2021/12/14 00:06:14;;;;;;;110.22;44.08;;;5.90;99.90;;;;;;5022614;28;20374;-53
2021/12/14 00:08:57;;;;;;;105.20;48.08;;;6.00;99.90;;;;;;5023269;28;20236;-55
2021/12/14 00:11:54;;;;;;;82.45;41.00;;;5.90;99.90;;;;;;5022203;28;20263;-53
2021/12/14 00:17:19;;;;;;;85.38;44.67;;;6.10;99.90;;;;;;5022639;28;20197;-55
2021/12/14 00:19:50;;;;;;;73.55;42.47;;;6.10;99.90;;;;;;5022703;28;20203;-53
2021/12/14 00:24:55;;;;;;;104.90;45.20;;;5.90;99.90;;;;;;5023129;28;20577;-52
2021/12/14 00:27:23;;;;;;;91.90;40.03;;;5.70;99.90;;;;;;5026059;28;20201;-58
2021/12/14 00:29:54;;;;;;;91.85;44.58;;;5.70;99.90;;;;;;5030193;28;20227;-59
2021/12/14 00:32:26;;;;;;;93.78;40.33;;;5.70;99.90;;;;;;5030660;28;20290;-53
2021/12/14 00:34:57;;;;;;;101.60;46.58;;;5.50;99.90;;;;;;5028978;28;20228;-53
2021/12/14 00:37:31;;;;;;;90.13;45.00;;;5.40;99.90;;;;;;5027876;28;20197;-56
2021/12/14 00:40:18;;;;;;;108.85;49.80;;;5.60;99.90;;;;;;5023162;28;20202;-55
2021/12/14 00:42:46;;;;;;;104.82;46.17;;;5.50;99.90;;;;;;5022964;28;20272;-57
2021/12/14 00:45:15;;;;;;;106.90;44.22;;;5.40;99.90;;;;;;5028732;28;20395;-57
2021/12/14 00:47:42;;;;;;;105.07;46.00;;;5.40;99.90;;;;;;5022015;28;20204;-53
2021/12/14 00:50:11;;;;;;;98.53;42.83;;;5.70;99.90;;;;;;5026058;28;20243;-59
2021/12/14 00:52:41;;;;;;;96.20;44.60;;;5.70;99.90;;;;;;5030678;28;20297;-58
2021/12/14 00:55:12;;;;;;;101.60;47.35;;;5.50;99.90;;;;;;5032276;28;20197;-55
2021/12/14 00:57:40;;;;;;;118.10;52.55;;;5.40;99.90;;;;;;5032187;28;20195;-58
2021/12/14 01:00:11;;;;;;;99.63;46.20;;;5.40;99.90;;;;;;5032439;28;20201;-58
2021/12/14 01:02:39;;;;;;;95.43;42.85;;;5.50;99.90;;;;;;5027052;28;20262;-55
2021/12/14 01:05:15;;;;;;;98.15;41.65;;;5.80;99.90;;;;;;5021323;28;20279;-56
2021/12/14 01:07:43;;;;;;;81.13;39.40;;;5.90;99.90;;;;;;5021115;28;20200;-54
2021/12/14 01:10:20;;;;;;;87.72;39.00;;;5.70;99.90;;;;;;5021343;28;20220;-54
2021/12/14 01:12:52;;;;;;;77.57;39.92;;;5.40;99.90;;;;;;5021664;28;20220;-55
2021/12/14 01:15:31;;;;;;;86.65;39.85;;;5.50;99.90;;;;;;5021016;28;20196;-53
2021/12/14 01:21:45;;;;;;;87.15;40.60;;;5.60;99.90;;;;;;5019256;28;20201;-56
2021/12/14 01:24:36;;;;;;;81.20;35.85;;;5.60;99.90;;;;;;5020644;28;20228;-58
2021/12/14 01:27:07;;;;;;;80.15;37.38;;;5.60;99.90;;;;;;5021169;28;20197;-56
2021/12/14 01:29:36;;;;;;;73.20;36.80;;;5.60;99.90;;;;;;5021058;28;20228;-55
2021/12/14 01:32:05;;;;;;;90.30;37.25;;;5.50;99.90;;;;;;5020269;28;20232;-56
2021/12/14 01:34:35;;;;;;;71.47;36.70;;;5.50;99.90;;;;;;5020838;28;20207;-57
2021/12/14 01:37:09;;;;;;;79.72;38.88;;;5.80;99.90;;;;;;5020158;28;20199;-56
2021/12/14 01:39:48;;;;;;;72.10;34.22;;;5.90;99.90;;;;;;5020824;28;20246;-57
2021/12/14 01:42:30;;;;;;;90.22;39.15;;;5.70;99.90;;;;;;5020600;28;20442;-55
2021/12/14 01:45:19;;;;;;;74.45;34.85;;;5.80;99.90;;;;;;5020531;28;20262;-56
2021/12/14 01:47:58;;;;;;;74.25;34.33;;;6.00;99.90;;;;;;5020174;28;20195;-51
2021/12/14 01:50:30;;;;;;;72.75;33.55;;;6.10;99.90;;;;;;5020171;28;20589;-55
2021/12/14 01:52:58;;;;;;;80.20;38.72;;;6.30;99.90;;;;;;5020215;28;20227;-59
2021/12/14 01:55:32;;;;;;;83.70;36.38;;;6.30;99.90;;;;;;5020433;28;20546;-55
2021/12/14 01:58:02;;;;;;;80.10;35.47;;;6.20;99.90;;;;;;5020540;28;20211;-54
2021/12/14 02:00:41;;;;;;;72.22;35.60;;;5.90;99.90;;;;;;5020002;28;20208;-54
2021/12/14 02:03:10;;;;;;;70.40;34.00;;;5.90;99.90;;;;;;5020079;28;20227;-55
2021/12/14 02:05:46;;;;;;;75.65;33.97;;;5.70;99.90;;;;;;5019815;28;20379;-54
2021/12/14 02:08:22;;;;;;;70.60;31.52;;;5.40;99.90;;;;;;5020535;28;20200;-55
2021/12/14 02:10:51;;;;;;;77.35;35.80;;;5.40;99.90;;;;;;5019574;28;20220;-56
2021/12/14 02:13:36;;;;;;;75.05;34.28;;;5.60;99.90;;;;;;5020120;28;20604;-54
2021/12/14 02:16:06;;;;;;;74.13;34.60;;;5.70;99.90;;;;;;5025738;28;20239;-59
2021/12/14 02:18:56;;;;;;;61.35;34.97;;;5.80;99.90;;;;;;5030220;28;20205;-54
2021/12/14 02:21:24;;;;;;;68.53;35.30;;;6.00;99.90;;;;;;5019884;28;20227;-52
2021/12/14 02:23:53;;;;;;;60.35;35.00;;;5.80;99.90;;;;;;5020739;28;20208;-56
2021/12/14 02:26:25;;;;;;;69.45;34.42;;;5.90;99.90;;;;;;5019961;28;20226;-56
2021/12/14 02:28:55;;;;;;;68.55;32.33;;;5.70;99.90;;;;;;5019980;28;20535;-56
2021/12/14 02:31:24;;;;;;;59.83;30.20;;;5.50;99.90;;;;;;5019761;28;20546;-56
2021/12/14 02:33:54;;;;;;;61.25;29.00;;;5.60;99.90;;;;;;5019803;28;20280;-53
2021/12/14 02:36:26;;;;;;;61.53;30.88;;;5.50;99.90;;;;;;5020226;28;20247;-55
2021/12/14 02:39:06;;;;;;;59.75;30.58;;;5.60;99.90;;;;;;5020058;28;20238;-58
2021/12/14 02:41:46;;;;;;;66.40;34.22;;;5.40;99.90;;;;;;5019626;28;20219;-57
2021/12/14 02:44:14;;;;;;;65.88;31.90;;;5.40;99.90;;;;;;5019694;28;20220;-54
2021/12/14 02:46:46;;;;;;;58.50;32.10;;;5.30;99.90;;;;;;5020136;28;20530;-56
2021/12/14 02:49:18;;;;;;;66.72;31.58;;;5.40;99.90;;;;;;5019511;28;20263;-55
2021/12/14 02:51:49;;;;;;;58.90;30.17;;;5.50;99.90;;;;;;5015920;28;20252;-54
2021/12/14 02:54:23;;;;;;;53.35;29.15;;;5.60;99.90;;;;;;5007687;28;20204;-53
2021/12/14 02:56:54;;;;;;;59.85;31.13;;;5.60;99.90;;;;;;5000102;28;20227;-54
2021/12/14 02:59:25;;;;;;;55.40;31.30;;;5.60;99.90;;;;;;4999224;28;20200;-54
2021/12/14 03:01:57;;;;;;;47.35;28.48;;;5.70;99.90;;;;;;4999584;28;20544;-53
2021/12/14 03:04:24;;;;;;;52.08;29.30;;;5.60;99.90;;;;;;5000028;28;20203;-56
2021/12/14 03:06:56;;;;;;;57.10;29.55;;;5.50;99.90;;;;;;4999639;28;20201;-54
2021/12/14 03:12:32;;;;;;;49.20;29.88;;;5.90;99.90;;;;;;4999270;28;20318;-55
2021/12/14 03:15:05;;;;;;;58.45;27.25;;;6.10;99.90;;;;;;5002518;28;20292;-56
2021/12/14 03:17:33;;;;;;;56.70;28.48;;;5.90;99.90;;;;;;5005303;28;20197;-55
2021/12/14 03:20:09;;;;;;;57.55;28.05;;;5.90;99.90;;;;;;5003355;28;20207;-52
2021/12/14 03:22:43;;;;;;;60.53;28.50;;;5.80;99.90;;;;;;5003766;28;20220;-52
2021/12/14 03:25:13;;;;;;;54.65;26.30;;;5.60;99.90;;;;;;5003465;28;20209;-53
2021/12/14 03:27:42;;;;;;;56.35;28.50;;;5.60;99.90;;;;;;5003785;28;20247;-53
2021/12/14 03:30:26;;;;;;;59.15;30.75;;;5.70;99.90;;;;;;5002821;28;20290;-53
2021/12/14 03:32:58;;;;;;;57.25;28.13;;;5.70;99.90;;;;;;5003514;28;20224;-54
2021/12/14 03:35:40;;;;;;;62.90;28.98;;;6.00;99.90;;;;;;5019462;28;20227;-55
2021/12/14 03:38:15;;;;;;;58.05;27.20;;;5.80;99.90;;;;;;5022615;28;20200;-51
2021/12/14 03:40:44;;;;;;;55.00;29.13;;;5.70;99.90;;;;;;5022138;28;20204;-51
2021/12/14 03:43:14;;;;;;;59.03;27.75;;;5.90;99.90;;;;;;5022591;28;20223;-57
2021/12/14 03:45:41;;;;;;;50.65;27.30;;;5.90;99.90;;;;;;5022350;28;20291;-55
2021/12/14 03:48:09;;;;;;;59.20;30.65;;;5.90;99.90;;;;;;5022556;28;20203;-56
2021/12/14 03:50:42;;;;;;;61.88;33.05;;;5.60;99.90;;;;;;5022428;28;20228;-56
2021/12/14 03:53:10;;;;;;;60.85;28.75;;;5.60;99.90;;;;;;5022185;28;20271;-53
2021/12/14 03:55:42;;;;;;;52.40;27.20;;;5.90;99.90;;;;;;5023078;28;20200;-54
2021/12/14 03:58:16;;;;;;;54.35;28.13;;;6.00;99.90;;;;;;5033919;28;20223;-59
2021/12/14 04:00:53;;;;;;;57.55;28.95;;;5.90;99.90;;;;;;5026209;28;20749;-52
2021/12/14 04:03:23;;;;;;;51.95;30.02;;;5.90;99.90;;;;;;5022590;28;20540;-53
2021/12/14 04:05:52;;;;;;;48.70;28.48;;;6.20;99.90;;;;;;5025324;28;20246;-53
2021/12/14 04:08:23;;;;;;;59.75;30.83;;;6.30;99.90;;;;;;5025640;28;20259;-53
2021/12/14 04:10:52;;;;;;;43.10;26.05;;;6.30;99.90;;;;;;5024234;28;20235;-52
2021/12/14 04:13:24;;;;;;;56.47;27.80;;;6.30;99.90;;;;;;5024510;28;20388;-53
2021/12/14 04:15:53;;;;;;;60.95;30.85;;;6.00;99.90;;;;;;5024066;28;20201;-52
2021/12/14 04:18:20;;;;;;;50.95;26.88;;;6.00;99.90;;;;;;5024071;28;20251;-54
2021/12/14 04:20:51;;;;;;;61.85;29.05;;;6.10;99.90;;;;;;5023261;28;20360;-51
2021/12/14 04:23:25;;;;;;;71.45;33.13;;;6.10;99.90;;;;;;5023476;28;20294;-51
2021/12/14 04:25:59;;;;;;;58.65;32.03;;;6.20;99.90;;;;;;5024025;28;20225;-52
2021/12/14 04:28:33;;;;;;;51.95;30.42;;;6.10;99.90;;;;;;5023435;28;20391;-53
2021/12/14 04:31:00;;;;;;;62.60;30.95;;;6.30;99.90;;;;;;5022701;28;20596;-53
2021/12/14 04:33:31;;;;;;;76.97;35.33;;;6.20;99.90;;;;;;5025931;28;20495;-51
2021/12/14 04:36:02;;;;;;;60.58;29.70;;;6.10;99.90;;;;;;5026672;28;20402;-53
2021/12/14 04:38:31;;;;;;;64.97;31.02;;;6.20;99.90;;;;;;5025629;28;20337;-54
2021/12/14 04:52:30;;;;;;;56.97;31.02;;;5.30;99.90;;;;;;5021143;28;20277;-52
2021/12/14 04:55:03;;;;;;;58.30;27.83;;;5.40;99.90;;;;;;5021275;28;20439;-53
2021/12/14 04:57:43;;;;;;;65.53;31.00;;;5.60;99.90;;;;;;5011481;28;20205;-54
2021/12/14 05:00:30;;;;;;;52.83;28.50;;;5.50;99.90;;;;;;5012964;28;20435;-53
2021/12/14 05:03:01;;;;;;;65.57;33.53;;;5.50;99.90;;;;;;5010378;28;20491;-53
2021/12/14 05:05:46;;;;;;;71.80;33.40;;;5.60;99.90;;;;;;5009495;28;20328;-57
2021/12/14 05:10:59;;;;;;;56.63;27.45;;;5.40;99.90;;;;;;5020383;28;20232;-51
2021/12/14 05:13:32;;;;;;;55.38;31.42;;;5.50;99.90;;;;;;5009196;28;20504;-51
2021/12/14 05:15:59;;;;;;;57.58;27.98;;;5.60;99.90;;;;;;5016886;28;20202;-54
2021/12/14 05:18:26;;;;;;;59.03;30.15;;;5.70;99.90;;;;;;5003374;28;20401;-52
2021/12/14 05:20:53;;;;;;;51.80;28.30;;;5.70;99.90;;;;;;5008258;28;20268;-56
2021/12/14 05:23:25;;;;;;;58.83;30.08;;;5.70;99.90;;;;;;5008198;28;20217;-55
2021/12/14 05:25:53;;;;;;;61.25;31.23;;;5.80;99.90;;;;;;5008114;28;20212;-54
2021/12/14 05:28:23;;;;;;;55.97;30.25;;;5.80;99.90;;;;;;5006509;28;20204;-55
2021/12/14 05:30:54;;;;;;;51.60;27.38;;;5.80;99.90;;;;;;5005796;28;20300;-54
2021/12/14 05:33:28;;;;;;;60.53;29.83;;;5.90;99.90;;;;;;5003826;28;20272;-54
2021/12/14 05:36:01;;;;;;;61.80;32.53;;;6.20;99.90;;;;;;5002221;28;20199;-54
2021/12/14 05:38:48;;;;;;;58.65;29.08;;;6.30;99.90;;;;;;5010364;28;20220;-55
2021/12/14 05:44:08;;;;;;;53.97;28.40;;;6.40;99.90;;;;;;5006558;28;20578;-53
2021/12/14 05:46:35;;;;;;;53.55;29.77;;;6.40;99.90;;;;;;5001007;28;20247;-51
2021/12/14 05:49:08;;;;;;;56.22;27.35;;;6.40;99.90;;;;;;5001106;28;20393;-51
2021/12/14 05:51:36;;;;;;;58.25;29.23;;;6.60;99.90;;;;;;5000564;28;20430;-52
2021/12/14 05:54:04;;;;;;;61.80;27.80;;;6.50;99.90;;;;;;5006144;28;20442;-51
2021/12/14 05:56:33;;;;;;;61.03;28.88;;;6.40;99.90;;;;;;5009057;28;20367;-52
2021/12/14 05:59:03;;;;;;;54.58;27.95;;;6.20;99.90;;;;;;5017478;28;20201;-56
2021/12/14 06:01:32;;;;;;;67.82;32.55;;;6.30;99.90;;;;;;5021583;28;20566;-54
2021/12/14 06:04:06;;;;;;;60.05;32.40;;;6.20;99.90;;;;;;5020091;28;20498;-53
2021/12/14 06:06:41;;;;;;;51.88;28.55;;;6.30;99.90;;;;;;5028954;28;20203;-59
2021/12/14 06:09:16;;;;;;;46.17;28.48;;;6.40;99.90;;;;;;5030727;28;20203;-57
2021/12/14 06:11:47;;;;;;;61.63;29.55;;;6.20;99.90;;;;;;5019658;28;20224;-51
2021/12/14 06:14:22;;;;;;;54.72;29.00;;;6.40;99.90;;;;;;5020484;28;20204;-57
2021/12/14 06:16:54;;;;;;;48.70;27.38;;;6.50;99.90;;;;;;5020398;28;20200;-56
2021/12/14 06:19:29;;;;;;;53.15;28.65;;;6.40;99.90;;;;;;5019758;28;20404;-55
2021/12/14 06:22:10;;;;;;;64.82;33.05;;;6.40;99.90;;;;;;5020140;28;20232;-56
2021/12/14 06:24:45;;;;;;;52.65;26.60;;;6.40;99.90;;;;;;5016514;28;20213;-55
2021/12/14 06:27:16;;;;;;;51.42;26.27;;;6.40;99.90;;;;;;5012180;28;20269;-54
2021/12/14 06:29:48;;;;;;;58.95;30.77;;;6.40;99.90;;;;;;5011994;28;20514;-52
2021/12/14 06:32:25;;;;;;;64.28;31.20;;;6.40;99.90;;;;;;5011133;28;20247;-53
2021/12/14 06:34:58;;;;;;;50.05;27.48;;;6.50;99.90;;;;;;5012806;28;20218;-54
2021/12/14 06:38:07;;;;;;;56.70;29.15;;;6.60;99.90;;;;;;5011874;28;20204;-52
2021/12/14 06:40:37;;;;;;;56.03;26.67;;;6.60;99.90;;;;;;5013250;28;20315;-54
2021/12/14 06:43:09;;;;;;;57.72;31.90;;;6.60;99.90;;;;;;5013824;28;20488;-53
2021/12/14 06:45:39;;;;;;;60.55;32.90;;;6.60;99.90;;;;;;5016727;28;20262;-50
2021/12/14 06:48:20;;;;;;;60.63;29.98;;;6.80;99.90;;;;;;5011004;28;20204;-55
2021/12/14 06:50:53;;;;;;;64.90;30.90;;;6.70;99.90;;;;;;5014122;28;20219;-51
2021/12/14 06:53:21;;;;;;;54.75;31.98;;;6.70;99.90;;;;;;5013717;28;20225;-50
2021/12/14 06:55:51;;;;;;;69.57;28.90;;;6.80;99.90;;;;;;5018923;28;20201;-53
2021/12/14 06:58:23;;;;;;;64.85;28.30;;;6.80;99.90;;;;;;5018110;28;20259;-54
2021/12/14 07:01:06;;;;;;;58.33;29.00;;;6.80;99.90;;;;;;5018114;28;20402;-52
2021/12/14 07:03:36;;;;;;;72.88;29.52;;;6.90;99.90;;;;;;5016585;28;20212;-52
2021/12/14 07:06:05;;;;;;;74.53;38.15;;;7.00;99.90;;;;;;5017505;28;20279;-55
2021/12/14 07:08:32;;;;;;;56.17;27.20;;;7.00;99.90;;;;;;5019184;28;20263;-54
2021/12/14 07:11:00;;;;;;;79.10;33.63;;;6.90;99.90;;;;;;5020387;28;20295;-53
2021/12/14 07:13:36;;;;;;;82.60;37.22;;;6.90;99.90;;;;;;5015283;28;20193;-53
2021/12/14 07:16:19;;;;;;;62.58;30.40;;;6.80;99.90;;;;;;5029360;28;20459;-54
2021/12/14 07:18:55;;;;;;;72.85;31.55;;;6.80;99.90;;;;;;5030609;28;20463;-51
2021/12/14 07:21:36;;;;;;;53.22;30.25;;;6.90;99.90;;;;;;5023511;28;20567;-56
2021/12/14 07:24:34;;;;;;;60.10;30.95;;;6.90;99.90;;;;;;5023553;28;20216;-53
2021/12/14 07:27:19;;;;;;;504.30;172.95;;;6.90;99.90;;;;;;5015177;28;20283;-51
2021/12/14 07:29:47;;;;;;;81.30;38.63;;;6.80;99.90;;;;;;5024447;28;20211;-54
2021/12/14 07:32:21;;;;;;;68.80;30.65;;;6.70;99.90;;;;;;5022913;28;20248;-52
2021/12/14 07:34:48;;;;;;;89.40;35.03;;;6.40;99.90;;;;;;5023322;28;20201;-54
2021/12/14 07:37:15;;;;;;;74.78;38.15;;;6.20;99.90;;;;;;5022715;28;20189;-53
2021/12/14 07:39:50;;;;;;;79.80;34.75;;;6.20;99.90;;;;;;5023238;28;20538;-55
2021/12/14 07:42:18;;;;;;;66.75;33.95;;;6.30;99.90;;;;;;5022974;28;20505;-54
2021/12/14 07:44:45;;;;;;;61.05;33.33;;;6.20;99.90;;;;;;5023484;28;20271;-53
2021/12/14 07:47:17;;;;;;;66.75;32.97;;;6.10;99.90;;;;;;5023122;28;20270;-55
2021/12/14 07:49:54;;;;;;;66.45;32.97;;;5.80;99.90;;;;;;5022815;28;20524;-53
2021/12/14 07:52:42;;;;;;;71.63;31.95;;;5.70;99.90;;;;;;5022724;28;20259;-54
2021/12/14 07:55:14;;;;;;;64.68;31.77;;;5.70;99.90;;;;;;5022572;28;20580;-53
2021/12/14 07:57:45;;;;;;;81.60;33.28;;;5.70;99.90;;;;;;5023007;28;20203;-53
2021/12/14 08:00:15;;;;;;;66.65;32.95;;;5.70;99.90;;;;;;5021696;28;20199;-56
2021/12/14 08:02:47;;;;;;;73.28;35.00;;;5.70;99.90;;;;;;5020876;28;20264;-54
2021/12/14 08:05:26;;;;;;;72.05;34.33;;;5.90;99.90;;;;;;5022054;28;20453;-53
2021/12/14 08:08:16;;;;;;;74.45;33.35;;;6.10;99.90;;;;;;5022862;28;20262;-54
2021/12/14 08:11:09;;;;;;;69.05;32.95;;;6.30;99.90;;;;;;5022145;28;20295;-57
2021/12/14 08:13:49;;;;;;;69.90;35.40;;;6.40;99.90;;;;;;5022266;28;20200;-53
2021/12/14 08:16:16;;;;;;;91.57;40.33;;;6.60;99.90;;;;;;5021932;28;20256;-57
2021/12/14 08:18:45;;;;;;;79.35;36.75;;;6.80;99.90;;;;;;5022325;28;20347;-55
2021/12/14 08:21:23;;;;;;;71.45;34.38;;;6.80;99.90;;;;;;5021609;28;20235;-55
2021/12/14 08:24:06;;;;;;;62.83;32.38;;;6.90;99.90;;;;;;5021567;28;20242;-54
2021/12/14 08:26:39;;;;;;;69.80;33.38;;;7.00;99.90;;;;;;5022154;28;20250;-54
2021/12/14 08:29:31;;;;;;;78.07;35.15;;;7.00;99.90;;;;;;5022136;28;20510;-53
2021/12/14 08:32:06;;;;;;;64.03;33.00;;;7.10;99.90;;;;;;5012809;28;20286;-55
2021/12/14 08:34:37;;;;;;;76.20;32.95;;;7.30;99.90;;;;;;5020759;28;20705;-54
2021/12/14 08:37:33;;;;;;;66.95;35.80;;;7.60;99.90;;;;;;5018778;28;20189;-55
2021/12/14 08:40:08;;;;;;;62.85;35.17;;;7.80;99.90;;;;;;5013436;28;20247;-54
2021/12/14 08:42:47;;;;;;;53.63;30.02;;;7.80;99.90;;;;;;5020687;28;20291;-56
2021/12/14 08:45:25;;;;;;;82.68;34.63;;;7.80;99.90;;;;;;5013393;28;20275;-53
2021/12/14 08:48:01;;;;;;;62.92;32.85;;;7.70;99.90;;;;;;5001951;28;20507;-55
2021/12/14 08:50:36;;;;;;;77.20;35.10;;;7.50;99.90;;;;;;5001651;28;20216;-49
2021/12/14 08:53:08;;;;;;;59.38;32.65;;;7.10;99.90;;;;;;5011348;28;20223;-58
2021/12/14 08:55:37;;;;;;;70.05;36.83;;;6.70;99.90;;;;;;5003997;28;20202;-52
2021/12/14 08:58:06;;;;;;;55.03;27.52;;;6.70;99.90;;;;;;5001921;28;20252;-55
2021/12/14 09:00:43;;;;;;;64.63;33.70;;;7.20;99.90;;;;;;5002312;28;20559;-54
2021/12/14 09:03:14;;;;;;;64.95;32.42;;;7.30;99.90;;;;;;5001618;28;20221;-58
2021/12/14 09:05:46;;;;;;;63.10;32.70;;;7.40;99.90;;;;;;5001598;28;20328;-53
2021/12/14 09:08:15;;;;;;;66.00;33.17;;;7.70;99.90;;;;;;5001319;28;20559;-54
2021/12/14 09:10:45;;;;;;;72.15;32.47;;;7.70;99.90;;;;;;5001407;28;20201;-57
2021/12/14 09:13:14;;;;;;;66.03;33.70;;;7.90;99.90;;;;;;5000306;28;20221;-57
2021/12/14 09:15:57;;;;;;;63.95;32.72;;;7.90;99.90;;;;;;5001207;28;20197;-51
2021/12/14 09:18:26;;;;;;;80.38;39.63;;;7.70;99.90;;;;;;5002266;28;20272;-56
2021/12/14 09:21:02;;;;;;;61.78;33.10;;;7.90;99.90;;;;;;5004441;28;20448;-57
2021/12/14 09:23:35;;;;;;;61.72;28.85;;;7.80;99.90;;;;;;5004589;28;20189;-58
2021/12/14 09:26:07;;;;;;;59.15;32.20;;;7.80;99.90;;;;;;5004748;28;20221;-57
2021/12/14 09:28:35;;;;;;;65.85;33.72;;;7.90;99.90;;;;;;5003775;28;20420;-54
2021/12/14 09:31:08;;;;;;;56.17;29.02;;;8.10;99.90;;;;;;5000982;28;20345;-55
2021/12/14 09:33:39;;;;;;;70.95;37.00;;;7.80;99.90;;;;;;5002127;28;20189;-56
2021/12/14 09:36:12;;;;;;;78.88;38.33;;;7.60;99.90;;;;;;5006477;28;20256;-56
2021/12/14 09:38:50;;;;;;;59.90;31.75;;;7.50;99.90;;;;;;5019726;28;20197;-55
2021/12/14 09:41:22;;;;;;;64.18;36.85;;;7.50;99.90;;;;;;5019896;28;20228;-56
2021/12/14 09:43:51;;;;;;;55.80;34.50;;;7.70;99.90;;;;;;5021138;28;20262;-54
2021/12/14 09:46:19;;;;;;;65.60;34.65;;;7.70;99.90;;;;;;5019590;28;20288;-55
2021/12/14 09:48:53;;;;;;;79.28;35.75;;;7.80;99.90;;;;;;5032534;28;20546;-53
2021/12/14 09:51:28;;;;;;;70.68;33.90;;;7.40;99.90;;;;;;5020096;28;20236;-53
2021/12/14 09:54:00;;;;;;;59.58;34.10;;;7.20;99.90;;;;;;5017129;28;20196;-55
2021/12/14 09:56:32;;;;;;;60.38;35.22;;;7.30;99.90;;;;;;5020376;28;20197;-56
2021/12/14 09:59:00;;;;;;;58.85;35.63;;;7.20;99.90;;;;;;5020293;28;20203;-54
2021/12/14 10:01:30;;;;;;;63.20;33.95;;;7.40;99.90;;;;;;5019842;28;20224;-59
2021/12/14 10:04:03;;;;;;;64.72;36.45;;;7.30;99.90;;;;;;5018989;28;20356;-56
2021/12/14 10:06:34;;;;;;;63.88;36.95;;;7.40;99.90;;;;;;5020370;28;20205;-55
2021/12/14 10:09:11;;;;;;;79.35;40.78;;;7.70;99.90;;;;;;5024010;28;20200;-58
2021/12/14 10:12:00;;;;;;;69.00;38.30;;;7.60;99.90;;;;;;5025888;28;20522;-58
2021/12/14 10:14:35;;;;;;;65.55;36.50;;;7.70;99.90;;;;;;5020410;28;20511;-53
2021/12/14 10:17:08;;;;;;;64.82;36.53;;;7.90;99.90;;;;;;5020630;28;20224;-56
2021/12/14 10:19:37;;;;;;;65.40;34.97;;;8.10;99.90;;;;;;5020524;28;20212;-53
2021/12/14 10:22:35;;;;;;;67.88;38.03;;;8.10;99.90;;;;;;5019975;28;20229;-55
2021/12/14 10:25:13;;;;;;;73.57;34.45;;;8.20;99.90;;;;;;5022437;28;20384;-55
2021/12/14 10:27:41;;;;;;;67.88;35.08;;;8.30;99.90;;;;;;5028179;28;20200;-56
2021/12/14 10:30:13;;;;;;;74.22;39.25;;;8.40;99.90;;;;;;5032196;28;20200;-57
2021/12/14 10:32:41;;;;;;;56.42;33.22;;;8.40;99.90;;;;;;5025142;28;20438;-55
2021/12/14 10:35:12;;;;;;;67.53;38.03;;;8.40;99.90;;;;;;5024983;28;20396;-52
2021/12/14 10:38:04;;;;;;;62.58;35.22;;;8.20;99.90;;;;;;5024984;28;20197;-54
2021/12/14 10:43:23;;;;;;;65.00;33.42;;;7.90;99.90;;;;;;5023462;28;20232;-55
2021/12/14 10:45:55;;;;;;;60.85;34.28;;;7.90;99.90;;;;;;5024715;28;20235;-53
2021/12/14 10:48:27;;;;;;;52.88;31.98;;;8.10;99.90;;;;;;5023787;28;20268;-55
2021/12/14 10:50:56;;;;;;;58.75;32.63;;;8.00;99.90;;;;;;5024132;28;20205;-57
2021/12/14 10:53:25;;;;;;;61.30;33.63;;;8.20;99.90;;;;;;5025831;28;20540;-56
2021/12/14 10:56:00;;;;;;;55.78;31.63;;;8.20;99.90;;;;;;5027023;28;20207;-55
2021/12/14 10:58:29;;;;;;;54.90;30.73;;;8.40;99.90;;;;;;5027015;28;20243;-56
2021/12/14 11:01:06;;;;;;;60.22;35.85;;;8.50;99.90;;;;;;5025542;28;20197;-55
2021/12/14 11:03:40;;;;;;;74.10;32.95;;;8.50;99.90;;;;;;5024393;28;20205;-52
2021/12/14 11:06:12;;;;;;;67.53;36.30;;;8.30;99.90;;;;;;5024345;28;20392;-55
2021/12/14 11:08:58;;;;;;;70.90;40.08;;;7.90;99.90;;;;;;5024100;28;20201;-57
2021/12/14 11:11:43;;;;;;;79.00;39.00;;;7.70;99.90;;;;;;5023317;28;20275;-57
2021/12/14 11:14:16;;;;;;;68.75;37.30;;;7.80;99.90;;;;;;5025059;28;20201;-56
2021/12/14 11:19:45;;;;;;;56.47;34.72;;;7.80;99.90;;;;;;5024008;28;20200;-55
2021/12/14 11:22:28;;;;;;;67.85;34.63;;;8.00;99.90;;;;;;5023410;28;20221;-55
2021/12/14 11:25:11;;;;;;;69.03;38.17;;;8.20;99.90;;;;;;5024527;28;20396;-54
2021/12/14 11:27:45;;;;;;;72.97;36.33;;;8.40;99.90;;;;;;5024766;28;20204;-55
2021/12/14 11:30:23;;;;;;;60.10;37.55;;;8.60;99.90;;;;;;5023471;28;20239;-55
2021/12/14 11:33:15;;;;;;;62.67;35.60;;;8.80;99.90;;;;;;5023088;28;20267;-57
2021/12/14 11:35:47;;;;;;;70.20;36.70;;;8.90;99.90;;;;;;5023416;28;20437;-56
2021/12/14 11:38:30;;;;;;;68.47;37.08;;;8.30;99.90;;;;;;5023858;28;20219;-57
2021/12/14 11:41:00;;;;;;;66.20;35.90;;;8.00;99.90;;;;;;5023813;28;20380;-56
2021/12/14 11:43:30;;;;;;;79.68;38.92;;;8.20;99.90;;;;;;5023838;28;20212;-54
2021/12/14 11:46:05;;;;;;;78.15;37.22;;;8.20;99.90;;;;;;5023656;28;20408;-56
2021/12/14 11:48:38;;;;;;;58.70;35.10;;;8.40;99.90;;;;;;5023604;28;20246;-56
2021/12/14 11:51:08;;;;;;;57.38;32.10;;;8.60;99.90;;;;;;5023070;28;20204;-54
2021/12/14 11:53:36;;;;;;;55.85;31.13;;;8.50;99.90;;;;;;5024152;28;20278;-56
2021/12/14 11:56:10;;;;;;;61.45;34.75;;;8.60;99.90;;;;;;5023250;28;20201;-54
2021/12/14 11:58:51;;;;;;;69.80;35.42;;;8.90;99.90;;;;;;5023613;28;20372;-55
2021/12/14 12:01:35;;;;;;;63.13;34.00;;;9.10;99.90;;;;;;5023410;28;20205;-57
2021/12/14 12:04:08;;;;;;;65.63;37.50;;;9.20;99.90;;;;;;5026432;28;20516;-56
2021/12/14 12:09:35;;;;;;;61.90;33.38;;;9.40;99.90;;;;;;5026900;28;20201;-57
2021/12/14 12:12:07;;;;;;;44.78;33.13;;;9.50;99.90;;;;;;5026775;28;20279;-56
2021/12/14 12:15:03;;;;;;;50.35;28.05;;;9.60;99.90;;;;;;5026215;28;20240;-54
2021/12/14 12:17:53;;;;;;;46.45;29.15;;;9.70;99.90;;;;;;5022862;28;20197;-56
2021/12/14 12:20:25;;;;;;;52.45;27.17;;;9.80;99.90;;;;;;5023308;28;20442;-54
2021/12/14 12:23:05;;;;;;;48.85;26.90;;;9.60;99.90;;;;;;5022346;28;20220;-54
2021/12/14 12:25:44;;;;;;;45.33;24.35;;;9.10;99.90;;;;;;5024582;28;20205;-57
2021/12/14 12:28:22;;;;;;;37.28;22.27;;;9.00;99.90;;;;;;5025791;28;20246;-58
2021/12/14 12:30:52;;;;;;;40.72;23.55;;;8.90;99.90;;;;;;5025907;28;20212;-57
2021/12/14 12:33:33;;;;;;;37.17;24.88;;;9.00;99.90;;;;;;5025570;28;20506;-58
2021/12/14 12:36:06;;;;;;;37.25;23.20;;;9.00;99.90;;;;;;5029597;28;20197;-59
2021/12/14 12:38:39;;;;;;;33.30;20.90;;;8.90;99.90;;;;;;5027935;28;20259;-53
2021/12/14 12:41:28;;;;;;;32.03;24.05;;;8.90;99.90;;;;;;5021604;28;20196;-52
2021/12/14 12:44:05;;;;;;;31.63;20.73;;;9.10;99.90;;;;;;5022230;28;20204;-55
2021/12/14 12:46:49;;;;;;;28.92;19.25;;;9.10;99.90;;;;;;5021561;28;20436;-56
2021/12/14 12:49:27;;;;;;;25.80;18.00;;;8.80;99.90;;;;;;5020869;28;20189;-55
2021/12/14 12:52:01;;;;;;;22.70;17.58;;;8.40;99.90;;;;;;5021332;28;20227;-55
2021/12/14 12:54:46;;;;;;;27.23;18.65;;;8.50;99.90;;;;;;5024245;28;20428;-52
2021/12/14 12:57:33;;;;;;;32.50;21.15;;;8.90;99.90;;;;;;5020935;28;20201;-55
2021/12/14 13:00:16;;;;;;;28.95;19.63;;;9.10;99.90;;;;;;5021627;28;20209;-55
2021/12/14 13:02:47;;;;;;;24.35;16.42;;;9.20;99.90;;;;;;5020970;28;20303;-54
2021/12/14 13:05:22;;;;;;;20.70;15.60;;;9.20;99.90;;;;;;5021256;28;20205;-53
2021/12/14 13:08:13;;;;;;;26.58;15.70;;;9.30;99.90;;;;;;5020834;28;20200;-55
2021/12/14 13:10:46;;;;;;;21.92;15.45;;;9.30;99.90;;;;;;5021271;28;20227;-56
2021/12/14 13:13:17;;;;;;;17.63;13.32;;;9.10;99.90;;;;;;5020310;28;20548;-59
2021/12/14 13:15:52;;;;;;;15.63;11.23;;;8.70;99.90;;;;;;5020840;28;20197;-55
2021/12/14 13:18:33;;;;;;;14.90;10.55;;;8.50;99.90;;;;;;5020774;28;20550;-56
2021/12/14 13:21:34;;;;;;;11.93;9.65;;;8.40;99.90;;;;;;5020125;28;20243;-51
2021/12/14 13:24:13;;;;;;;12.90;9.57;;;8.30;99.90;;;;;;5020562;28;20207;-53
2021/12/14 13:26:47;;;;;;;14.10;9.35;;;8.20;99.90;;;;;;5021216;28;20201;-52
2021/12/14 13:29:32;;;;;;;16.60;10.18;;;8.20;99.90;;;;;;5020681;28;20403;-55
2021/12/14 13:32:08;;;;;;;18.33;11.60;;;8.40;99.90;;;;;;5020578;28;20418;-54
2021/12/14 13:34:48;;;;;;;12.43;9.10;;;8.70;99.90;;;;;;5020406;28;20200;-56
2021/12/14 13:37:24;;;;;;;13.23;10.75;;;8.50;99.90;;;;;;5020789;28;20196;-54
2021/12/14 13:39:53;;;;;;;15.88;10.45;;;8.60;99.90;;;;;;5024764;28;20205;-56
2021/12/14 13:42:52;;;;;;;14.25;11.38;;;8.80;99.90;;;;;;5025110;28;20220;-56
2021/12/14 13:45:29;;;;;;;21.60;12.40;;;9.10;99.90;;;;;;5019686;28;20201;-56
2021/12/14 13:47:59;;;;;;;19.17;13.40;;;9.20;99.90;;;;;;5020683;28;20399;-52
2021/12/14 13:50:46;;;;;;;17.60;11.07;;;9.50;99.90;;;;;;5020528;28;20576;-54